createdAt,value
2022-12-14T00:01:45.139Z,-1.90
2022-12-14T00:04:17.462Z,-2.00
2022-12-14T00:06:44.397Z,-2.00
2022-12-14T00:09:11.482Z,-2.10
2022-12-14T00:11:38.391Z,-2.10
2022-12-14T00:14:06.204Z,-2.10
2022-12-14T00:16:35.174Z,-2.10
2022-12-14T00:19:02.954Z,-2.10
2022-12-14T00:21:29.862Z,-2.10
2022-12-14T00:23:59.503Z,-2.10
2022-12-14T00:26:31.043Z,-2.20
2022-12-14T00:29:00.584Z,-2.20
2022-12-14T00:31:28.124Z,-2.20
2022-12-14T00:33:55.523Z,-2.20
2022-12-14T00:36:22.928Z,-2.20
2022-12-14T00:38:49.815Z,-2.30
2022-12-14T00:41:16.712Z,-2.30
2022-12-14T00:43:44.242Z,-2.30
2022-12-14T00:46:11.427Z,-2.30
2022-12-14T00:48:38.564Z,-2.30
2022-12-14T00:51:06.040Z,-2.40
2022-12-14T00:53:32.968Z,-2.40
2022-12-14T00:56:08.750Z,-2.40
2022-12-14T00:58:36.047Z,-2.50
2022-12-14T01:01:12.343Z,-2.50
2022-12-14T01:03:39.571Z,-2.50
2022-12-14T01:06:06.811Z,-2.60
2022-12-14T01:08:36.637Z,-2.60
2022-12-14T01:11:08.609Z,-2.60
2022-12-14T01:13:37.542Z,-2.70
2022-12-14T01:16:11.636Z,-2.70
2022-12-14T01:18:40.350Z,-2.70
2022-12-14T01:21:19.490Z,-2.80
2022-12-14T01:23:48.650Z,-2.80
2022-12-14T01:26:17.387Z,-2.80
2022-12-14T01:28:46.234Z,-2.80
2022-12-14T01:31:17.259Z,-2.90
2022-12-14T01:33:45.161Z,-2.90
2022-12-14T01:36:19.072Z,-2.90
2022-12-14T01:38:47.602Z,-2.90
2022-12-14T01:41:29.962Z,-3.00
2022-12-14T01:44:02.033Z,-3.00
2022-12-14T01:46:34.150Z,-3.00
2022-12-14T01:49:13.464Z,-3.00
2022-12-14T01:51:48.754Z,-3.00
2022-12-14T01:54:16.702Z,-3.10
2022-12-14T01:56:45.804Z,-3.10
2022-12-14T01:59:23.603Z,-3.10
2022-12-14T02:01:52.290Z,-3.20
2022-12-14T02:04:20.127Z,-3.20
2022-12-14T02:06:49.370Z,-3.20
2022-12-14T02:09:21.951Z,-3.20
2022-12-14T02:11:58.682Z,-3.20
2022-12-14T02:14:26.703Z,-3.20
2022-12-14T02:16:56.106Z,-3.30
2022-12-14T02:19:23.649Z,-3.30
2022-12-14T02:22:34.536Z,-3.30
2022-12-14T02:25:31.693Z,-3.30
2022-12-14T02:28:53.173Z,-3.30
2022-12-14T02:31:45.026Z,-3.30
2022-12-14T02:34:45.520Z,-3.30
2022-12-14T02:37:39.129Z,-3.30
2022-12-14T02:40:34.369Z,-3.30
2022-12-14T02:43:30.755Z,-3.30
2022-12-14T02:46:45.068Z,-3.30
2022-12-14T02:49:32.846Z,-3.30
2022-12-14T02:52:29.430Z,-3.30
2022-12-14T02:55:17.790Z,-3.30
2022-12-14T02:58:01.418Z,-3.30
2022-12-14T03:00:33.803Z,-3.30
2022-12-14T03:03:01.778Z,-3.30
2022-12-14T03:05:29.622Z,-3.30
2022-12-14T03:08:14.548Z,-3.30
2022-12-14T03:10:51.643Z,-3.30
2022-12-14T03:13:37.439Z,-3.30
2022-12-14T03:16:22.931Z,-3.30
2022-12-14T03:19:42.700Z,-3.30
2022-12-14T03:22:30.253Z,-3.30
2022-12-14T03:25:27.051Z,-3.30
2022-12-14T03:28:12.243Z,-3.30
2022-12-14T03:31:00.319Z,-3.30
2022-12-14T03:33:30.731Z,-3.40
2022-12-14T03:36:16.463Z,-3.40
2022-12-14T03:38:48.139Z,-3.40
2022-12-14T03:41:54.866Z,-3.40
2022-12-14T03:44:48.769Z,-3.40
2022-12-14T03:47:33.518Z,-3.50
2022-12-14T03:50:06.883Z,-3.50
2022-12-14T03:52:50.198Z,-3.50
2022-12-14T03:55:40.910Z,-3.40
2022-12-14T03:58:27.783Z,-3.50
2022-12-14T04:01:21.584Z,-3.50
2022-12-14T04:04:04.043Z,-3.50
2022-12-14T04:06:45.679Z,-3.50
2022-12-14T04:09:52.313Z,-3.60
2022-12-14T04:12:56.840Z,-3.60
2022-12-14T04:15:48.981Z,-3.60
2022-12-14T04:18:59.262Z,-3.60
2022-12-14T04:21:36.685Z,-3.60
2022-12-14T04:24:43.541Z,-3.60
2022-12-14T04:27:36.607Z,-3.50
2022-12-14T04:30:06.261Z,-3.60
2022-12-14T04:33:26.541Z,-3.50
2022-12-14T04:35:57.376Z,-3.50
2022-12-14T04:38:35.212Z,-3.50
2022-12-14T04:41:09.363Z,-3.50
2022-12-14T04:43:41.827Z,-3.50
2022-12-14T04:46:13.900Z,-3.50
2022-12-14T04:48:48.233Z,-3.50
2022-12-14T04:52:04.824Z,-3.50
2022-12-14T04:54:53.587Z,-3.60
2022-12-14T04:58:18.510Z,-3.60
2022-12-14T05:01:22.648Z,-3.60
2022-12-14T05:04:08.166Z,-3.60
2022-12-14T05:06:44.846Z,-3.60
2022-12-14T05:09:44.086Z,-3.70
2022-12-14T05:12:22.930Z,-3.70
2022-12-14T05:14:59.881Z,-3.70
2022-12-14T05:17:27.937Z,-3.70
2022-12-14T05:19:54.897Z,-3.80
2022-12-14T05:22:22.227Z,-3.80
2022-12-14T05:24:49.139Z,-3.80
2022-12-14T05:27:16.520Z,-3.80
2022-12-14T05:29:43.555Z,-3.90
2022-12-14T05:32:13.508Z,-3.90
2022-12-14T05:34:40.706Z,-3.90
2022-12-14T05:37:09.571Z,-3.90
2022-12-14T05:39:40.174Z,-3.90
2022-12-14T05:42:07.274Z,-3.90
2022-12-14T05:44:34.263Z,-3.90
2022-12-14T05:47:01.305Z,-3.90
2022-12-14T05:49:28.200Z,-3.90
2022-12-14T05:51:55.409Z,-3.90
2022-12-14T05:54:22.322Z,-3.90
2022-12-14T05:56:49.499Z,-3.90
2022-12-14T05:59:17.557Z,-3.90
2022-12-14T06:01:45.637Z,-3.90
2022-12-14T06:04:18.836Z,-3.90
2022-12-14T06:06:46.121Z,-4.00
2022-12-14T06:09:16.001Z,-4.00
2022-12-14T06:11:44.583Z,-4.00
2022-12-14T06:14:13.371Z,-3.70
2022-12-14T06:16:43.274Z,-4.00
2022-12-14T06:19:11.543Z,-4.10
2022-12-14T06:21:40.820Z,-4.10
2022-12-14T06:24:09.851Z,-4.10
2022-12-14T06:26:37.398Z,-4.10
2022-12-14T06:29:04.843Z,-4.10
2022-12-14T06:31:33.132Z,-4.20
2022-12-14T06:34:03.046Z,-4.20
2022-12-14T06:36:33.195Z,-4.20
2022-12-14T06:39:04.742Z,-4.20
2022-12-14T06:41:32.073Z,-4.20
2022-12-14T06:44:08.221Z,-4.20
2022-12-14T06:46:36.538Z,-4.30
2022-12-14T06:49:05.832Z,-4.30
2022-12-14T06:51:37.779Z,-4.20
2022-12-14T06:54:04.795Z,-4.30
2022-12-14T06:56:32.134Z,-4.30
2022-12-14T06:58:59.466Z,-4.30
2022-12-14T07:01:26.770Z,-4.30
2022-12-14T07:03:56.528Z,-4.30
2022-12-14T07:06:26.001Z,-4.30
2022-12-14T07:08:55.872Z,-4.30
2022-12-14T07:11:23.569Z,-4.30
2022-12-14T07:13:50.586Z,-4.30
2022-12-14T07:16:23.873Z,-4.30
2022-12-14T07:18:52.301Z,-4.30
2022-12-14T07:21:20.904Z,-4.30
2022-12-14T07:23:49.196Z,-4.30
2022-12-14T07:26:26.443Z,-4.30
2022-12-14T07:28:55.106Z,-4.30
2022-12-14T07:31:28.555Z,-4.30
2022-12-14T07:33:58.301Z,-4.20
2022-12-14T07:36:28.012Z,-4.20
2022-12-14T07:38:56.099Z,-4.20
2022-12-14T07:41:30.685Z,-4.20
2022-12-14T07:44:00.655Z,-4.20
2022-12-14T07:46:29.626Z,-4.20
2022-12-14T07:48:59.054Z,-4.10
2022-12-14T07:51:29.669Z,-4.10
2022-12-14T07:53:57.254Z,-4.10
2022-12-14T07:56:38.019Z,-4.10
2022-12-14T07:59:08.588Z,-4.10
2022-12-14T08:01:37.501Z,-4.00
2022-12-14T08:04:11.892Z,-4.00
2022-12-14T08:06:40.607Z,-4.00
2022-12-14T08:09:10.563Z,-3.90
2022-12-14T08:11:39.139Z,-3.90
2022-12-14T08:14:18.753Z,-3.80
2022-12-14T08:16:47.316Z,-3.80
2022-12-14T08:19:15.011Z,-3.70
2022-12-14T08:21:42.253Z,-3.70
2022-12-14T08:24:12.215Z,-3.60
2022-12-14T08:26:39.566Z,-3.50
2022-12-14T08:29:06.753Z,-3.50
2022-12-14T08:31:34.422Z,-3.30
2022-12-14T08:34:02.185Z,-3.10
2022-12-14T08:36:34.419Z,-2.80
2022-12-14T08:39:07.912Z,-2.40
2022-12-14T08:41:35.548Z,-2.00
2022-12-14T08:44:04.642Z,-1.40
2022-12-14T08:46:34.334Z,-0.90
2022-12-14T08:49:01.562Z,-0.40
2022-12-14T08:51:29.561Z,0.20
2022-12-14T08:53:57.341Z,0.80
2022-12-14T08:56:27.271Z,1.30
2022-12-14T08:58:54.636Z,1.90
2022-12-14T09:01:33.408Z,2.50
2022-12-14T09:04:08.268Z,3.10
2022-12-14T09:06:38.942Z,3.70
2022-12-14T09:09:13.608Z,4.20
2022-12-14T09:11:42.882Z,4.70
2022-12-14T09:14:10.912Z,5.10
2022-12-14T09:16:38.100Z,5.50
2022-12-14T09:19:05.387Z,5.80
2022-12-14T09:21:32.488Z,6.10
2022-12-14T09:24:00.166Z,6.30
2022-12-14T09:26:28.003Z,6.50
2022-12-14T09:28:58.100Z,7.00
2022-12-14T09:31:27.759Z,6.90
2022-12-14T09:33:55.358Z,7.10
2022-12-14T09:36:27.540Z,7.30
2022-12-14T09:38:56.528Z,7.40
2022-12-14T09:41:35.569Z,7.50
2022-12-14T09:44:18.857Z,7.60
2022-12-14T09:47:10.812Z,7.80
2022-12-14T09:49:44.929Z,8.00
2022-12-14T09:52:40.255Z,8.20
2022-12-14T09:55:34.957Z,8.50
2022-12-14T09:58:09.956Z,8.90
2022-12-14T10:00:52.909Z,9.00
2022-12-14T10:04:10.835Z,9.20
2022-12-14T10:07:11.657Z,9.30
2022-12-14T10:10:02.248Z,9.40
2022-12-14T10:13:20.774Z,9.40
2022-12-14T10:16:15.286Z,9.40
2022-12-14T10:19:07.252Z,9.50
2022-12-14T10:21:47.398Z,9.50
2022-12-14T10:24:22.479Z,9.50
2022-12-14T10:26:55.201Z,9.60
2022-12-14T10:29:37.261Z,9.70
2022-12-14T10:32:19.476Z,9.80
2022-12-14T10:34:46.671Z,9.80
2022-12-14T10:37:35.129Z,9.90
2022-12-14T10:40:33.156Z,9.90
2022-12-14T10:43:25.963Z,9.90
2022-12-14T10:46:10.133Z,9.80
2022-12-14T10:48:57.166Z,9.70
2022-12-14T10:51:47.887Z,9.50
2022-12-14T10:54:39.306Z,9.40
2022-12-14T10:57:06.457Z,9.20
2022-12-14T10:59:44.700Z,9.10
2022-12-14T11:02:23.135Z,9.00
2022-12-14T11:05:03.840Z,8.90
2022-12-14T11:07:33.841Z,8.80
2022-12-14T11:10:19.228Z,8.70
2022-12-14T11:13:05.490Z,8.50
2022-12-14T11:15:43.248Z,8.50
2022-12-14T11:18:16.557Z,8.20
2022-12-14T11:20:55.547Z,8.10
2022-12-14T11:23:27.672Z,8.20
2022-12-14T11:25:59.234Z,8.30
2022-12-14T11:28:49.960Z,8.50
2022-12-14T11:31:39.009Z,8.70
2022-12-14T11:34:22.131Z,9.10
2022-12-14T11:36:50.171Z,9.40
2022-12-14T11:39:24.666Z,9.80
2022-12-14T11:42:04.501Z,10.00
2022-12-14T11:44:37.661Z,10.30
2022-12-14T11:47:15.827Z,10.40
2022-12-14T11:49:45.915Z,10.70
2022-12-14T11:52:25.396Z,10.70
2022-12-14T11:54:52.377Z,10.60
2022-12-14T11:57:34.532Z,10.50
2022-12-14T12:00:06.948Z,10.30
2022-12-14T12:02:38.289Z,10.10
2022-12-14T12:05:14.758Z,9.90
2022-12-14T12:08:02.856Z,9.80
2022-12-14T12:10:45.074Z,9.50
2022-12-14T12:13:38.694Z,9.30
2022-12-14T12:16:22.867Z,9.10
2022-12-14T12:19:15.654Z,9.00
2022-12-14T12:21:45.191Z,9.00
2022-12-14T12:25:24.245Z,9.00
2022-12-14T12:27:45.216Z,9.00
2022-12-14T12:30:28.634Z,8.90
2022-12-14T12:33:05.469Z,8.90
2022-12-14T12:35:49.556Z,8.80
2022-12-14T12:38:55.202Z,8.80
2022-12-14T12:42:05.196Z,8.80
2022-12-14T12:44:49.548Z,8.80
2022-12-14T12:47:41.553Z,8.70
2022-12-14T12:50:37.047Z,8.70
2022-12-14T12:53:15.065Z,8.50
2022-12-14T12:55:50.174Z,8.40
2022-12-14T12:58:29.297Z,8.10
2022-12-14T13:01:02.073Z,7.90
2022-12-14T13:03:40.184Z,7.60
2022-12-14T13:06:31.428Z,7.30
2022-12-14T13:09:17.819Z,7.10
2022-12-14T13:11:46.039Z,6.90
2022-12-14T13:14:36.076Z,6.80
2022-12-14T13:17:06.709Z,6.60
2022-12-14T13:19:52.080Z,6.40
2022-12-14T13:22:31.274Z,6.10
2022-12-14T13:25:06.486Z,5.90
2022-12-14T13:27:58.372Z,5.70
2022-12-14T13:30:42.707Z,5.40
2022-12-14T13:33:53.710Z,5.20
2022-12-14T13:36:55.231Z,4.90
2022-12-14T13:39:50.575Z,4.70
2022-12-14T13:42:51.914Z,4.40
2022-12-14T13:45:27.470Z,4.20
2022-12-14T13:47:57.157Z,4.00
2022-12-14T13:50:51.245Z,3.80
2022-12-14T13:53:37.271Z,3.60
2022-12-14T13:56:05.186Z,3.40
2022-12-14T13:58:44.940Z,3.20
2022-12-14T14:01:48.406Z,3.10
2022-12-14T14:04:25.808Z,2.90
2022-12-14T14:06:56.635Z,2.80
2022-12-14T14:09:26.571Z,2.60
2022-12-14T14:12:24.192Z,2.50
2022-12-14T14:15:08.233Z,2.30
2022-12-14T14:17:41.576Z,2.20
2022-12-14T14:20:47.397Z,2.10
2022-12-14T14:23:14.291Z,2.00
2022-12-14T14:25:49.847Z,1.80
2022-12-14T14:28:22.980Z,1.70
2022-12-14T14:30:52.484Z,1.60
2022-12-14T14:33:46.521Z,1.50
2022-12-14T14:36:30.871Z,1.40
2022-12-14T14:39:01.604Z,1.30
2022-12-14T14:41:40.693Z,1.20
2022-12-14T14:45:00.012Z,1.10
2022-12-14T14:47:39.529Z,1.00
2022-12-14T14:50:24.670Z,0.90
2022-12-14T14:53:32.851Z,0.90
2022-12-14T14:56:29.252Z,0.80
2022-12-14T14:59:18.093Z,0.60
2022-12-14T15:01:58.125Z,0.50
2022-12-14T15:04:51.627Z,0.50
2022-12-14T15:07:27.746Z,0.40
2022-12-14T15:10:20.720Z,0.30
2022-12-14T15:13:01.939Z,0.20
2022-12-14T15:15:40.394Z,0.10
2022-12-14T15:18:31.557Z,0.00
2022-12-14T15:21:16.132Z,0.00
2022-12-14T15:23:50.528Z,-0.10
2022-12-14T15:26:27.372Z,-0.20
2022-12-14T15:29:00.551Z,-0.20
2022-12-14T15:31:40.366Z,-0.30
2022-12-14T15:34:15.417Z,-0.40
2022-12-14T15:36:43.154Z,-0.40
2022-12-14T15:39:40.008Z,-0.50
2022-12-14T15:42:11.690Z,-0.50
2022-12-14T15:44:43.699Z,-0.60
2022-12-14T15:47:27.855Z,-0.70
2022-12-14T15:50:00.464Z,-0.70
2022-12-14T15:52:31.158Z,-0.80
2022-12-14T15:54:59.485Z,-0.80
2022-12-14T15:57:26.740Z,-0.90
2022-12-14T15:59:57.427Z,-0.90
2022-12-14T16:02:38.198Z,-1.00
2022-12-14T16:05:06.438Z,-1.00
2022-12-14T16:07:39.362Z,-1.00
2022-12-14T16:10:32.965Z,-1.10
2022-12-14T16:13:33.469Z,-1.10
2022-12-14T16:16:11.736Z,-1.20
2022-12-14T16:18:50.785Z,-1.20
2022-12-14T16:21:35.292Z,-1.20
2022-12-14T16:24:24.228Z,-1.20
2022-12-14T16:27:00.723Z,-1.30
2022-12-14T16:29:33.665Z,-1.30
2022-12-14T16:32:07.109Z,-1.40
2022-12-14T16:34:34.523Z,-1.40
2022-12-14T16:37:34.740Z,-1.50
2022-12-14T16:39:52.476Z,-1.50
2022-12-14T16:42:25.842Z,-1.60
2022-12-14T16:44:54.404Z,-1.60
2022-12-14T16:47:21.530Z,-1.60
2022-12-14T16:49:51.959Z,-1.70
2022-12-14T16:52:35.506Z,-1.70
2022-12-14T16:55:18.604Z,-1.70
2022-12-14T16:57:48.626Z,-1.80
2022-12-14T17:00:36.170Z,-1.80
2022-12-14T17:03:09.124Z,-1.80
2022-12-14T17:05:40.369Z,-1.90
2022-12-14T17:08:08.626Z,-1.90
2022-12-14T17:10:37.408Z,-1.60
2022-12-14T17:13:04.521Z,-1.90
2022-12-14T17:15:34.449Z,-1.70
2022-12-14T17:18:04.713Z,-2.00
2022-12-14T17:20:39.566Z,-2.00
2022-12-14T17:23:10.299Z,-2.00
2022-12-14T17:25:37.353Z,-2.10
2022-12-14T17:28:21.707Z,-2.10
2022-12-14T17:30:50.521Z,-2.10
2022-12-14T17:33:17.875Z,-2.10
2022-12-14T17:35:44.916Z,-2.20
2022-12-14T17:38:16.516Z,-2.20
2022-12-14T17:40:45.628Z,-2.20
2022-12-14T17:43:21.005Z,-2.20
2022-12-14T17:45:48.332Z,-2.20
2022-12-14T17:48:17.436Z,-2.20
2022-12-14T17:50:48.411Z,-2.30
2022-12-14T17:53:26.416Z,-2.30
2022-12-14T17:55:53.532Z,-2.30
2022-12-14T17:58:20.472Z,-2.30
2022-12-14T18:01:03.656Z,-2.40
2022-12-14T18:03:36.521Z,-2.40
2022-12-14T18:06:04.726Z,-2.40
2022-12-14T18:08:31.903Z,-2.40
2022-12-14T18:11:02.986Z,-2.40
2022-12-14T18:13:33.141Z,-2.40
2022-12-14T18:16:00.995Z,-2.50
2022-12-14T18:18:29.394Z,-2.50
2022-12-14T18:21:02.684Z,-2.50
2022-12-14T18:23:31.909Z,-2.60
2022-12-14T18:26:00.663Z,-2.60
2022-12-14T18:28:27.643Z,-2.60
2022-12-14T18:31:01.745Z,-2.60
2022-12-14T18:33:29.670Z,-2.60
2022-12-14T18:35:57.541Z,-2.70
2022-12-14T18:38:25.863Z,-2.70
2022-12-14T18:40:56.227Z,-2.70
2022-12-14T18:43:28.484Z,-2.70
2022-12-14T18:45:56.716Z,-2.80
2022-12-14T18:48:25.194Z,-2.80
2022-12-14T18:50:54.604Z,-2.80
2022-12-14T18:53:24.413Z,-2.80
2022-12-14T18:55:52.612Z,-2.90
2022-12-14T18:58:24.425Z,-2.90
2022-12-14T19:00:55.211Z,-2.90
2022-12-14T19:03:24.182Z,-2.90
2022-12-14T19:05:51.655Z,-2.70
2022-12-14T19:08:19.683Z,-3.00
2022-12-14T19:10:48.577Z,-3.00
2022-12-14T19:13:25.733Z,-3.00
2022-12-14T19:15:54.200Z,-3.00
2022-12-14T19:18:21.614Z,-3.00
2022-12-14T19:20:49.463Z,-3.10
2022-12-14T19:23:19.865Z,-3.00
2022-12-14T19:25:47.536Z,-3.10
2022-12-14T19:28:31.283Z,-3.10
2022-12-14T19:31:00.426Z,-3.10
2022-12-14T19:33:28.625Z,-3.10
2022-12-14T19:35:56.206Z,-3.10
2022-12-14T19:38:23.165Z,-3.20
2022-12-14T19:41:05.105Z,-3.10
2022-12-14T19:43:32.727Z,-3.20
2022-12-14T19:46:00.226Z,-3.20
2022-12-14T19:48:27.247Z,-3.10
2022-12-14T19:50:54.293Z,-3.20
2022-12-14T19:53:23.703Z,-3.20
2022-12-14T19:55:53.997Z,-3.20
2022-12-14T19:58:25.499Z,-3.20
2022-12-14T20:00:52.766Z,-3.20
2022-12-14T20:03:20.047Z,-3.20
2022-12-14T20:05:59.318Z,-3.20
2022-12-14T20:08:29.398Z,-3.30
2022-12-14T20:10:57.511Z,-3.30
2022-12-14T20:13:26.661Z,-3.30
2022-12-14T20:15:59.660Z,-3.30
2022-12-14T20:18:28.430Z,-3.30
2022-12-14T20:21:08.072Z,-3.40
2022-12-14T20:23:37.317Z,-3.40
2022-12-14T20:26:12.963Z,-3.40
2022-12-14T20:28:40.869Z,-3.40
2022-12-14T20:31:10.172Z,-3.40
2022-12-14T20:33:38.389Z,-3.40
2022-12-14T20:36:06.573Z,-3.40
2022-12-14T20:38:34.065Z,-3.40
2022-12-14T20:41:10.592Z,-3.50
2022-12-14T20:43:40.502Z,-3.50
2022-12-14T20:46:30.772Z,-3.50
2022-12-14T20:49:01.446Z,-3.50
2022-12-14T20:51:30.495Z,-3.50
2022-12-14T20:53:57.943Z,-3.50
2022-12-14T20:56:25.457Z,-3.50
2022-12-14T20:58:52.723Z,-3.60
2022-12-14T21:01:21.594Z,-3.60
2022-12-14T21:03:50.252Z,-3.60
2022-12-14T21:06:22.605Z,-3.60
2022-12-14T21:09:04.994Z,-3.60
2022-12-14T21:12:02.400Z,-3.60
2022-12-14T21:14:36.250Z,-3.60
2022-12-14T21:17:04.021Z,-3.70
2022-12-14T21:19:32.919Z,-3.70
2022-12-14T21:21:59.929Z,-3.70
2022-12-14T21:27:23.783Z,-3.70
2022-12-14T21:29:52.288Z,-3.80
2022-12-14T21:32:20.756Z,-3.80
2022-12-14T21:34:48.416Z,-3.80
2022-12-14T21:37:15.983Z,-3.80
2022-12-14T21:39:47.590Z,-3.80
2022-12-14T21:42:20.964Z,-3.80
2022-12-14T21:44:50.739Z,-3.90
2022-12-14T21:47:29.451Z,-3.90
2022-12-14T21:49:57.313Z,-3.90
2022-12-14T21:52:27.093Z,-3.90
2022-12-14T21:54:54.490Z,-3.90
2022-12-14T21:57:49.484Z,-3.90
2022-12-14T22:00:19.167Z,-3.90
2022-12-14T22:02:46.333Z,-3.90
2022-12-14T22:05:13.401Z,-3.90
2022-12-14T22:07:40.520Z,-3.90
2022-12-14T22:10:07.825Z,-4.00
2022-12-14T22:12:34.894Z,-4.00
2022-12-14T22:15:02.044Z,-4.00
2022-12-14T22:17:28.949Z,-4.00
2022-12-14T22:19:56.169Z,-4.00
2022-12-14T22:22:23.361Z,-4.00
2022-12-14T22:24:51.231Z,-4.00
2022-12-14T22:27:19.916Z,-4.00
2022-12-14T22:29:47.418Z,-4.00
2022-12-14T22:32:15.999Z,-4.00
2022-12-14T22:34:43.275Z,-4.00
2022-12-14T22:37:13.557Z,-4.00
2022-12-14T22:39:40.713Z,-4.10
2022-12-14T22:42:07.677Z,-4.10
2022-12-14T22:44:34.837Z,-4.10
2022-12-14T22:47:02.247Z,-4.10
2022-12-14T22:49:29.262Z,-4.10
2022-12-14T22:51:56.494Z,-4.10
2022-12-14T22:54:27.716Z,-4.10
2022-12-14T22:57:05.133Z,-4.10
2022-12-14T22:59:45.174Z,-4.20
2022-12-14T23:02:12.840Z,-4.20
2022-12-14T23:04:40.168Z,-4.20
2022-12-14T23:07:07.295Z,-4.20
2022-12-14T23:09:53.152Z,-4.20
2022-12-14T23:12:38.881Z,-4.20
2022-12-14T23:15:24.765Z,-4.30
2022-12-14T23:21:18.257Z,-4.30
2022-12-14T23:24:04.767Z,-4.30
2022-12-14T23:26:51.647Z,-4.30
2022-12-14T23:29:37.581Z,-4.30
2022-12-14T23:32:23.548Z,-4.30
2022-12-14T23:35:09.095Z,-4.30
2022-12-14T23:37:55.026Z,-4.30
2022-12-14T23:40:40.377Z,-4.30
2022-12-14T23:43:36.609Z,-4.40
2022-12-14T23:46:24.459Z,-4.40
2022-12-14T23:49:15.350Z,-4.40
2022-12-14T23:52:02.011Z,-4.40
2022-12-14T23:54:47.940Z,-4.40
2022-12-14T23:57:34.069Z,-4.40
